Etusivu
METAR-TAF:

METAR-TAF

Lentoasemat :

Helsinki, Suomi

Helsinki-Vantaan lentoasema

Leveyspiiri: 60-19N, Pituuspiiri: 024-58E, korkeus merenpinnasta: 51 m

Tämänhetkinen sää

Tämä raportti tehtiin 20 minuuttia sitten, kello 08.20 UTC
Tuuli 6 kn pohjoisesta
Lämpötila 17°C
Kosteus 59%
Ilmanpaine 1016 hPa
Näkyvyys 10 km tai enemmän
Muutamia pilviä 2500 ft:n korkeudessa
Hajanaisia pilviä 5000 ft:n korkeudessa

METAR: EFHK 210820Z 36006KT 9999 FEW025 SCT050 17/09 Q1016 NOSIG

Aika: 11:40 (08:40 UTC)

Sääennuste

Tämä raportti tehtiin 3 tuntia ja 3 minuuttia sitten, kello 05.37 UTC
Ennuste voimassa 21. päivästä klo 06 UTC - 22. päivään klo 06 UTC
Tuuli 7 kn luoteesta
Näkyvyys 10 km tai enemmän
Muutamia pilviä 2000 ft:n korkeudessa

TAF: EFHK 210537Z 2106/2206 31007KT 9999 FEW020

Säähavainnot ja -ennusteet yli 4000 lentoasemalta (METAR- ja TAF-raportit).

Käytössä olevat sääasemat on merkitty karttaan keltaisilla ja punaisilla pisteillä.

Aseta hiiri pisteen päälle nähdäksesi sääaseman nimen.

Klikkaa sitten nähdäksesi säähavainnot ja -ennusteet.

Kartan vaihtaminen: klikkaa mustalla rastilla varustettuja vihreitä pisteitä, niin voit zoomata sisään; viivalla varustettua vihreää pistettä, niin voit zoomata ulos tai vihreitä nuolia, niin pääset viereisille kartoille.


METAR-TAF: